Navarino — VRQD6 — position and weather

sailwx.info

Track history (hours):
 
Tides and Currents Weather Stations Pressure Air Temp Water Temp Dewpoint Dewpoint Depression Visibility Wind Speed Wind Dir Waves Ship Positions

Navarino

Last reported at 2017-Nov-17 06:55 UTC. Time now 2017-Nov-22 18:34 UTC.
Position N 31°06' E 122°26'.

Length 335 m; draft 10.9 m.

Type: Ship (hazmat cat A). MMSI: 477252600.

Date/timePositionNaut miles runAvg speedWind from/ knotsBaromVisibWave heightAir tempDewpointWater temp
2017-Nov-17 06:55N 31°06' E 122°26'511.2
2017-Nov-17 06:29N 31°06' E 122°20'813.7
2017-Nov-17 05:54N 31°10' E 122°12'4 9.5
2017-Nov-17 05:30N 31°12' E 122°08'611.6
2017-Nov-17 05:01N 31°14' E 122°02'815.0
2017-Nov-17 04:31N 31°16' E 121°54'714.8
2017-Nov-17 04:01N 31°18' E 121°45'612.5
2017-Nov-17 03:30N 31°21' E 121°39'3 6.4
2017-Nov-17 03:00N 31°22' E 121°35'0 0.0
2017-Nov-17 02:28N 31°22' E 121°35'0 0.0
2017-Nov-17 01:58N 31°22' E 121°35'0 0.0
2017-Nov-17 01:28N 31°22' E 121°35'0 0.0
2017-Nov-17 00:58N 31°22' E 121°35'0 0.0
2017-Nov-17 00:28N 31°22' E 121°35'0 0.0
2017-Nov-16 23:58N 31°22' E 121°35'0 0.0
2017-Nov-16 23:28N 31°22' E 121°35'0 0.0
2017-Nov-16 22:58N 31°22' E 121°35'0 0.0
2017-Nov-16 22:28N 31°22' E 121°35'0 0.0
2017-Nov-16 21:58N 31°22' E 121°35'0 0.0
2017-Nov-16 21:28N 31°22' E 121°35'0 0.0
2017-Nov-16 20:58N 31°22' E 121°35'0 0.0
2017-Nov-16 20:28N 31°22' E 121°35'0 0.0
2017-Nov-16 19:58N 31°22' E 121°35'0 0.0
2017-Nov-16 19:28N 31°22' E 121°35'0 0.0
2017-Nov-16 18:58N 31°22' E 121°35'0 0.0
2017-Nov-16 18:28N 31°22' E 121°35'0 0.0
2017-Nov-16 17:58N 31°22' E 121°35'0 0.0
2017-Nov-16 17:28N 31°22' E 121°35'0 0.0
2017-Nov-16 16:58N 31°22' E 121°35'0 0.0
2017-Nov-16 16:25N 31°22' E 121°35'0 0.0
2017-Nov-16 15:58N 31°22' E 121°35'0 0.0
2017-Nov-16 15:30N 31°22' E 121°35'1 1.7
2017-Nov-16 15:00N 31°23' E 121°36'510.0
2017-Nov-16 14:30N 31°20' E 121°41'611.3
2017-Nov-16 14:00N 31°18' E 121°47'611.7
2017-Nov-16 13:30N 31°16' E 121°54'611.8
2017-Nov-16 13:00N 31°15' E 122°01'611.4
2017-Nov-16 12:30N 31°13' E 122°07'611.1
2017-Nov-16 12:00N 31°10' E 122°12'711.5
2017-Nov-16 11:26N 31°06' E 122°19'512.5
2017-Nov-16 11:00N 31°07' E 122°25'6 0.2
2017-Nov-15 01:24N 31°12' E 122°30'1 2.8
2017-Nov-15 00:54N 31°13' E 122°30'  
2017-Nov-12 18:56N 37°20' E 122°47'3618.2
2017-Nov-12 16:59N 37°48' E 122°18'919.7
2017-Nov-12 16:30N 37°54' E 122°09'1919.9
2017-Nov-12 15:34N 38°05' E 121°51'220.3
2017-Nov-12 15:29N 38°06' E 121°49'  
Track history (hours):
 
Tides and Currents Weather Stations Pressure Air Temp Water Temp Dewpoint Dewpoint Depression Visibility Wind Speed Wind Dir Waves Ship Positions

Navarino

Last reported at 2017-Nov-17 06:55 UTC. Time now 2017-Nov-22 18:34 UTC.
Position N 31°06' E 122°26'.

Length 335 m; draft 10.9 m.

Type: Ship (hazmat cat A). MMSI: 477252600.

Date/timePositionNaut miles runAvg speedWind from/ knotsBaromVisibWave heightAir tempDewpointWater temp
2017-Nov-17 06:55N 31°06' E 122°26'511.2
2017-Nov-17 06:29N 31°06' E 122°20'813.7
2017-Nov-17 05:54N 31°10' E 122°12'4 9.5
2017-Nov-17 05:30N 31°12' E 122°08'611.6
2017-Nov-17 05:01N 31°14' E 122°02'815.0
2017-Nov-17 04:31N 31°16' E 121°54'714.8
2017-Nov-17 04:01N 31°18' E 121°45'612.5
2017-Nov-17 03:30N 31°21' E 121°39'3 6.4
2017-Nov-17 03:00N 31°22' E 121°35'0 0.0
2017-Nov-17 02:28N 31°22' E 121°35'0 0.0
2017-Nov-17 01:58N 31°22' E 121°35'0 0.0
2017-Nov-17 01:28N 31°22' E 121°35'0 0.0
2017-Nov-17 00:58N 31°22' E 121°35'0 0.0
2017-Nov-17 00:28N 31°22' E 121°35'0 0.0
2017-Nov-16 23:58N 31°22' E 121°35'0 0.0
2017-Nov-16 23:28N 31°22' E 121°35'0 0.0
2017-Nov-16 22:58N 31°22' E 121°35'0 0.0
2017-Nov-16 22:28N 31°22' E 121°35'0 0.0
2017-Nov-16 21:58N 31°22' E 121°35'0 0.0
2017-Nov-16 21:28N 31°22' E 121°35'0 0.0
2017-Nov-16 20:58N 31°22' E 121°35'0 0.0
2017-Nov-16 20:28N 31°22' E 121°35'0 0.0
2017-Nov-16 19:58N 31°22' E 121°35'0 0.0
2017-Nov-16 19:28N 31°22' E 121°35'0 0.0
2017-Nov-16 18:58N 31°22' E 121°35'0 0.0
2017-Nov-16 18:28N 31°22' E 121°35'0 0.0
2017-Nov-16 17:58N 31°22' E 121°35'0 0.0
2017-Nov-16 17:28N 31°22' E 121°35'0 0.0
2017-Nov-16 16:58N 31°22' E 121°35'0 0.0
2017-Nov-16 16:25N 31°22' E 121°35'0 0.0
2017-Nov-16 15:58N 31°22' E 121°35'0 0.0
2017-Nov-16 15:30N 31°22' E 121°35'1 1.7
2017-Nov-16 15:00N 31°23' E 121°36'510.0
2017-Nov-16 14:30N 31°20' E 121°41'611.3
2017-Nov-16 14:00N 31°18' E 121°47'611.7
2017-Nov-16 13:30N 31°16' E 121°54'611.8
2017-Nov-16 13:00N 31°15' E 122°01'611.4
2017-Nov-16 12:30N 31°13' E 122°07'611.1
2017-Nov-16 12:00N 31°10' E 122°12'711.5
2017-Nov-16 11:26N 31°06' E 122°19'512.5
2017-Nov-16 11:00N 31°07' E 122°25'6 0.2
2017-Nov-15 01:24N 31°12' E 122°30'1 2.8
2017-Nov-15 00:54N 31°13' E 122°30'  
2017-Nov-12 18:56N 37°20' E 122°47'3618.2
2017-Nov-12 16:59N 37°48' E 122°18'919.7
2017-Nov-12 16:30N 37°54' E 122°09'1919.9
2017-Nov-12 15:34N 38°05' E 121°51'220.3
2017-Nov-12 15:29N 38°06' E 121°49'  

Dump ship's entire track history